createdAt,value
2022-11-08T00:01:40.824Z,34.10
2022-11-08T00:04:10.689Z,35.50
2022-11-08T00:06:58.358Z,33.23
2022-11-08T00:09:45.170Z,36.70
2022-11-08T00:12:31.872Z,41.50
2022-11-08T00:14:59.711Z,44.67
2022-11-08T00:17:28.726Z,45.23
2022-11-08T00:19:56.162Z,37.10
2022-11-08T00:22:24.943Z,77.33
2022-11-08T00:24:52.536Z,45.00
2022-11-08T00:27:27.538Z,42.10
2022-11-08T00:29:56.005Z,50.97
2022-11-08T00:32:27.275Z,42.93
2022-11-08T00:34:54.458Z,45.17
2022-11-08T00:37:22.983Z,44.00
2022-11-08T00:39:50.888Z,49.33
2022-11-08T00:42:18.368Z,46.57
2022-11-08T00:44:45.696Z,40.20
2022-11-08T00:47:12.982Z,35.83
2022-11-08T00:49:42.363Z,40.00
2022-11-08T00:52:09.637Z,44.17
2022-11-08T00:54:36.830Z,34.87
2022-11-08T00:57:04.075Z,30.93
2022-11-08T00:59:31.279Z,36.07
2022-11-08T01:01:59.315Z,33.30
2022-11-08T01:04:26.706Z,27.23
2022-11-08T01:06:54.890Z,27.33
2022-11-08T01:09:22.114Z,32.33
2022-11-08T01:11:50.131Z,32.50
2022-11-08T01:14:20.343Z,31.50
2022-11-08T01:16:51.793Z,37.67
2022-11-08T01:19:19.232Z,29.93
2022-11-08T01:21:47.877Z,28.63
2022-11-08T01:24:15.304Z,31.17
2022-11-08T01:26:43.548Z,34.17
2022-11-08T01:29:14.111Z,35.97
2022-11-08T01:31:43.871Z,35.27
2022-11-08T01:34:11.146Z,26.80
2022-11-08T01:36:38.535Z,34.57
2022-11-08T01:39:06.003Z,33.93
2022-11-08T01:41:33.875Z,36.07
2022-11-08T01:44:01.084Z,27.73
2022-11-08T01:46:38.690Z,31.97
2022-11-08T01:49:08.621Z,28.23
2022-11-08T01:51:40.558Z,28.93
2022-11-08T01:54:09.618Z,33.73
2022-11-08T02:00:40.464Z,36.87
2022-11-08T02:03:09.401Z,39.00
2022-11-08T02:05:37.754Z,64.80
2022-11-08T02:08:31.627Z,43.57
2022-11-08T02:11:18.159Z,63.23
2022-11-08T02:13:45.755Z,57.93
2022-11-08T02:16:15.098Z,51.00
2022-11-08T02:18:44.603Z,102.63
2022-11-08T02:21:50.811Z,130.80
2022-11-08T02:24:18.221Z,31.30
2022-11-08T02:26:53.358Z,48.40
2022-11-08T02:29:35.084Z,164.30
2022-11-08T02:36:41.282Z,69.67
2022-11-08T02:38:46.242Z,51.13
2022-11-08T02:41:14.241Z,73.53
2022-11-08T02:43:42.355Z,240.63
2022-11-08T02:46:09.639Z,50.80
2022-11-08T02:48:36.926Z,100.10
2022-11-08T02:51:05.448Z,55.87
2022-11-08T02:53:32.876Z,73.30
2022-11-08T02:56:02.197Z,44.33
2022-11-08T02:58:29.752Z,90.63
2022-11-08T03:00:57.071Z,45.23
2022-11-08T03:03:24.680Z,123.03
2022-11-08T03:05:51.994Z,93.73
2022-11-08T03:08:19.531Z,54.40
2022-11-08T03:10:47.537Z,36.57
2022-11-08T03:13:15.343Z,86.80
2022-11-08T03:15:42.547Z,63.57
2022-11-08T03:18:10.192Z,49.67
2022-11-08T03:20:37.456Z,37.53
2022-11-08T03:23:06.681Z,48.00
2022-11-08T03:25:34.511Z,66.37
2022-11-08T03:28:04.029Z,44.87
2022-11-08T03:30:32.332Z,74.70
2022-11-08T03:32:59.976Z,90.87
2022-11-08T03:35:27.368Z,34.70
2022-11-08T03:37:56.248Z,50.17
2022-11-08T03:40:24.309Z,67.17
2022-11-08T03:42:51.831Z,119.40
2022-11-08T03:45:19.501Z,60.13
2022-11-08T03:47:47.966Z,44.27
2022-11-08T03:50:16.555Z,62.57
2022-11-08T03:52:46.689Z,61.83
2022-11-08T03:55:18.567Z,40.73
2022-11-08T03:57:47.975Z,114.60
2022-11-08T04:00:18.165Z,58.43
2022-11-08T04:02:47.023Z,45.07
2022-11-08T04:05:15.581Z,54.92
2022-11-08T04:07:43.521Z,43.37
2022-11-08T04:10:12.251Z,41.27
2022-11-08T04:13:00.627Z,41.43
2022-11-08T04:15:29.851Z,43.33
2022-11-08T04:18:17.529Z,41.47
2022-11-08T04:21:05.726Z,55.40
2022-11-08T04:23:36.662Z,37.60
2022-11-08T04:26:08.662Z,40.83
2022-11-08T04:28:37.201Z,40.03
2022-11-08T04:31:06.913Z,49.90
2022-11-08T04:33:34.372Z,43.20
2022-11-08T04:36:03.995Z,51.07
2022-11-08T04:38:32.560Z,43.83
2022-11-08T04:41:05.491Z,48.13
2022-11-08T04:43:33.259Z,48.37
2022-11-08T04:46:02.566Z,42.30
2022-11-08T04:48:30.353Z,40.67
2022-11-08T04:51:10.142Z,42.50
2022-11-08T04:53:37.631Z,47.00
2022-11-08T04:56:10.171Z,36.60
2022-11-08T04:58:45.589Z,49.37
2022-11-08T05:01:18.023Z,43.17
2022-11-08T05:03:47.080Z,35.83
2022-11-08T05:06:23.132Z,40.10
2022-11-08T05:08:51.019Z,39.60
2022-11-08T05:11:21.173Z,39.73
2022-11-08T05:13:49.254Z,38.97
2022-11-08T05:16:27.813Z,35.80
2022-11-08T05:18:55.683Z,41.90
2022-11-08T05:21:43.070Z,39.83
2022-11-08T05:24:12.857Z,43.53
2022-11-08T05:26:44.405Z,41.83
2022-11-08T05:29:12.637Z,41.87
2022-11-08T05:31:40.036Z,37.73
2022-11-08T05:34:07.720Z,43.53
2022-11-08T05:36:35.370Z,42.20
2022-11-08T05:39:02.976Z,45.33
2022-11-08T05:41:30.310Z,34.50
2022-11-08T05:43:57.958Z,47.23
2022-11-08T05:46:27.290Z,49.03
2022-11-08T05:48:55.008Z,54.30
2022-11-08T05:51:22.472Z,52.30
2022-11-08T05:53:49.841Z,47.58
2022-11-08T05:56:17.953Z,43.07
2022-11-08T05:58:45.656Z,58.80
2022-11-08T06:01:15.534Z,65.50
2022-11-08T06:03:44.311Z,45.63
2022-11-08T06:06:14.659Z,49.80
2022-11-08T06:08:49.002Z,51.40
2022-11-08T06:11:23.951Z,55.07
2022-11-08T06:13:52.415Z,53.00
2022-11-08T06:16:21.146Z,44.50
2022-11-08T06:18:48.514Z,50.40
2022-11-08T06:21:19.023Z,45.00
2022-11-08T06:23:49.255Z,45.93
2022-11-08T06:26:16.460Z,52.53
2022-11-08T06:28:44.071Z,49.23
2022-11-08T06:31:11.420Z,57.13
2022-11-08T06:33:38.737Z,53.77
2022-11-08T06:36:07.072Z,51.73
2022-11-08T06:38:34.448Z,48.80
2022-11-08T06:41:02.534Z,44.17
2022-11-08T06:43:30.053Z,38.30
2022-11-08T06:46:02.486Z,58.88
2022-11-08T06:48:35.326Z,46.00
2022-11-08T06:51:04.251Z,43.73
2022-11-08T06:53:31.886Z,45.17
2022-11-08T06:56:01.190Z,41.72
2022-11-08T06:58:29.346Z,53.77
2022-11-08T07:00:58.518Z,40.55
2022-11-08T07:03:26.130Z,47.87
2022-11-08T07:05:53.653Z,45.72
2022-11-08T07:08:24.016Z,44.03
2022-11-08T07:10:53.789Z,48.65
2022-11-08T07:13:24.340Z,45.22
2022-11-08T07:15:51.868Z,45.00
2022-11-08T07:18:20.209Z,55.53
2022-11-08T07:20:47.790Z,48.70
2022-11-08T07:23:15.399Z,51.20
2022-11-08T07:25:43.051Z,59.75
2022-11-08T07:28:18.047Z,53.53
2022-11-08T07:30:46.840Z,56.03
2022-11-08T07:33:16.080Z,45.53
2022-11-08T07:35:46.399Z,52.72
2022-11-08T07:38:13.724Z,61.03
2022-11-08T07:40:41.071Z,59.97
2022-11-08T07:43:12.879Z,65.63
2022-11-08T07:45:42.157Z,57.20
2022-11-08T07:48:12.889Z,64.82
2022-11-08T07:50:42.854Z,57.08
2022-11-08T07:53:10.700Z,62.78
2022-11-08T07:55:40.297Z,68.68
2022-11-08T07:58:08.744Z,44.22
2022-11-08T08:00:39.020Z,44.83
2022-11-08T08:03:08.745Z,53.85
2022-11-08T08:05:40.558Z,48.70
2022-11-08T08:08:09.927Z,62.25
2022-11-08T08:10:38.467Z,62.88
2022-11-08T08:13:06.551Z,64.43
2022-11-08T08:15:33.963Z,60.65
2022-11-08T08:18:03.137Z,51.60
2022-11-08T08:20:32.331Z,49.90
2022-11-08T08:23:00.301Z,45.90
2022-11-08T08:25:31.482Z,63.90
2022-11-08T08:28:01.050Z,64.50
2022-11-08T08:30:30.205Z,47.72
2022-11-08T08:33:29.828Z,52.70
2022-11-08T08:35:57.953Z,46.42
2022-11-08T08:38:25.530Z,53.05
2022-11-08T08:40:53.571Z,48.75
2022-11-08T08:43:21.634Z,56.88
2022-11-08T08:45:49.181Z,50.00
2022-11-08T08:48:16.729Z,54.75
2022-11-08T08:50:44.467Z,45.40
2022-11-08T08:53:11.897Z,40.63
2022-11-08T08:55:41.774Z,35.03
2022-11-08T08:58:10.857Z,39.20
2022-11-08T09:03:25.725Z,36.63
2022-11-08T09:05:53.036Z,30.58
2022-11-08T09:08:20.330Z,36.17
2022-11-08T09:10:56.208Z,40.13
2022-11-08T09:13:24.465Z,50.38
2022-11-08T09:15:52.848Z,41.28
2022-11-08T09:18:31.315Z,39.85
2022-11-08T09:20:59.040Z,41.55
2022-11-08T09:23:27.061Z,38.25
2022-11-08T09:26:02.114Z,39.78
2022-11-08T09:28:31.803Z,35.90
2022-11-08T09:31:08.416Z,38.70
2022-11-08T09:33:36.723Z,33.78
2022-11-08T09:36:05.380Z,29.17
2022-11-08T09:38:33.366Z,31.25
2022-11-08T09:41:31.741Z,32.38
2022-11-08T09:44:07.664Z,26.83
2022-11-08T09:46:56.253Z,34.05
2022-11-08T09:49:38.273Z,33.03
2022-11-08T09:52:06.308Z,31.23
2022-11-08T09:54:42.332Z,33.15
2022-11-08T09:57:21.896Z,34.05
2022-11-08T09:59:54.780Z,35.63
2022-11-08T10:02:24.697Z,33.75
2022-11-08T10:05:00.217Z,34.60
2022-11-08T10:07:51.174Z,30.55
2022-11-08T10:10:34.311Z,30.67
2022-11-08T10:13:04.810Z,38.63
2022-11-08T10:15:50.030Z,29.60
2022-11-08T10:18:32.788Z,38.28
2022-11-08T10:21:09.400Z,32.05
2022-11-08T10:23:44.538Z,42.67
2022-11-08T10:26:20.530Z,29.42
2022-11-08T10:28:56.382Z,28.33
2022-11-08T10:31:23.840Z,31.00
2022-11-08T10:33:56.858Z,28.80
2022-11-08T10:36:32.374Z,31.58
2022-11-08T10:39:09.097Z,29.33
2022-11-08T10:41:56.916Z,22.30
2022-11-08T10:44:27.723Z,28.38
2022-11-08T10:47:00.193Z,24.45
2022-11-08T10:49:40.300Z,27.35
2022-11-08T10:52:18.077Z,28.73
2022-11-08T10:54:47.866Z,28.77
2022-11-08T10:57:30.091Z,28.98
2022-11-08T11:00:16.927Z,31.77
2022-11-08T11:02:48.646Z,27.90
2022-11-08T11:05:19.152Z,30.95
2022-11-08T11:08:09.249Z,29.05
2022-11-08T11:10:40.950Z,25.83
2022-11-08T11:13:24.736Z,26.73
2022-11-08T11:15:58.522Z,28.70
2022-11-08T11:18:40.547Z,28.98
2022-11-08T11:21:16.599Z,29.15
2022-11-08T11:23:49.496Z,28.25
2022-11-08T11:26:21.576Z,28.67
2022-11-08T11:29:06.024Z,25.85
2022-11-08T11:31:40.403Z,27.73
2022-11-08T11:34:19.801Z,25.08
2022-11-08T11:37:05.006Z,26.02
2022-11-08T11:39:49.577Z,28.20
2022-11-08T11:42:51.149Z,23.77
2022-11-08T11:45:52.370Z,22.00
2022-11-08T11:48:31.031Z,25.02
2022-11-08T11:51:00.833Z,24.88
2022-11-08T11:53:31.782Z,23.33
2022-11-08T11:56:14.098Z,22.73
2022-11-08T11:59:05.038Z,26.33
2022-11-08T12:02:09.935Z,24.42
2022-11-08T12:05:08.870Z,26.13
2022-11-08T12:07:45.896Z,25.15
2022-11-08T12:10:45.871Z,28.40
2022-11-08T12:13:53.924Z,24.25
2022-11-08T12:16:26.444Z,25.27
2022-11-08T12:19:10.937Z,25.27
2022-11-08T12:22:24.195Z,28.35
2022-11-08T12:25:20.539Z,22.95
2022-11-08T12:28:30.858Z,25.75
2022-11-08T12:31:25.673Z,27.63
2022-11-08T12:34:08.038Z,26.17
2022-11-08T12:37:16.077Z,28.98
2022-11-08T12:39:56.057Z,29.98
2022-11-08T12:42:50.670Z,28.75
2022-11-08T12:46:09.636Z,29.95
2022-11-08T12:49:04.075Z,34.30
2022-11-08T12:52:01.953Z,33.88
2022-11-08T12:54:35.659Z,32.25
2022-11-08T12:57:16.786Z,29.05
2022-11-08T13:00:19.571Z,24.58
2022-11-08T13:03:06.246Z,30.42
2022-11-08T13:05:47.383Z,28.88
2022-11-08T13:08:29.654Z,33.55
2022-11-08T13:11:01.746Z,30.30
2022-11-08T13:13:56.679Z,26.20
2022-11-08T13:16:28.506Z,35.58
2022-11-08T13:18:58.204Z,27.67
2022-11-08T13:21:28.306Z,28.40
2022-11-08T13:24:09.771Z,28.65
2022-11-08T13:26:43.827Z,25.60
2022-11-08T13:29:29.726Z,31.83
2022-11-08T13:32:04.281Z,29.88
2022-11-08T13:34:40.511Z,30.92
2022-11-08T13:37:43.167Z,34.28
2022-11-08T13:40:13.155Z,26.02
2022-11-08T13:42:50.271Z,27.23
2022-11-08T13:45:18.531Z,27.85
2022-11-08T13:47:48.135Z,26.85
2022-11-08T13:50:35.075Z,30.58
2022-11-08T13:53:24.340Z,33.08
2022-11-08T13:56:07.184Z,30.50
2022-11-08T13:58:43.989Z,34.65
2022-11-08T14:01:23.374Z,38.17
2022-11-08T14:03:59.503Z,35.67
2022-11-08T14:06:57.248Z,41.17
2022-11-08T14:09:54.190Z,39.90
2022-11-08T14:12:37.640Z,40.90
2022-11-08T14:15:16.204Z,37.03
2022-11-08T14:17:54.916Z,43.80
2022-11-08T14:20:41.018Z,40.08
2022-11-08T14:23:24.395Z,41.20
2022-11-08T14:26:03.880Z,37.80
2022-11-08T14:28:37.694Z,31.02
2022-11-08T14:31:15.875Z,35.17
2022-11-08T14:33:43.994Z,60.25
2022-11-08T14:36:18.086Z,37.15
2022-11-08T14:39:17.804Z,32.05
2022-11-08T14:41:52.430Z,34.75
2022-11-08T14:44:20.422Z,31.35
2022-11-08T14:46:50.270Z,36.97
2022-11-08T14:49:46.596Z,34.65
2022-11-08T14:52:23.194Z,34.03
2022-11-08T14:55:12.222Z,31.17
2022-11-08T14:57:41.322Z,32.72
2022-11-08T15:00:28.170Z,30.67
2022-11-08T15:03:00.256Z,33.70
2022-11-08T15:05:41.370Z,33.85
2022-11-08T15:08:38.565Z,34.47
2022-11-08T15:11:12.034Z,34.75
2022-11-08T15:13:50.933Z,36.25
2022-11-08T15:16:21.412Z,46.20
2022-11-08T15:18:49.654Z,46.38
2022-11-08T15:21:33.235Z,51.83
2022-11-08T15:24:15.255Z,53.72
2022-11-08T15:27:13.290Z,64.97
2022-11-08T15:29:50.540Z,65.55
2022-11-08T15:32:21.204Z,59.42
2022-11-08T15:34:49.144Z,57.38
2022-11-08T15:37:34.736Z,61.30
2022-11-08T15:40:18.771Z,55.63
2022-11-08T15:42:52.043Z,52.58
2022-11-08T15:45:20.625Z,54.53
2022-11-08T15:47:52.144Z,52.67
2022-11-08T15:50:21.159Z,55.67
2022-11-08T15:52:52.414Z,51.65
2022-11-08T15:55:31.730Z,49.42
2022-11-08T15:57:59.386Z,47.75
2022-11-08T16:00:31.543Z,50.65
2022-11-08T16:03:07.083Z,58.03
2022-11-08T16:05:41.185Z,70.80
2022-11-08T16:08:18.651Z,65.47
2022-11-08T16:10:53.555Z,63.45
2022-11-08T16:13:28.607Z,62.33
2022-11-08T16:16:02.303Z,54.42
2022-11-08T16:18:34.168Z,54.78
2022-11-08T16:21:03.955Z,58.63
2022-11-08T16:23:32.272Z,49.65
2022-11-08T16:26:03.666Z,55.97
2022-11-08T16:28:38.249Z,48.50
2022-11-08T16:31:08.133Z,58.20
2022-11-08T16:33:41.315Z,58.38
2022-11-08T16:36:27.928Z,66.68
2022-11-08T16:38:59.809Z,67.20
2022-11-08T16:41:30.989Z,77.10
2022-11-08T16:44:03.261Z,76.43
2022-11-08T16:46:31.535Z,71.75
2022-11-08T16:48:59.312Z,70.47
2022-11-08T16:51:26.862Z,71.68
2022-11-08T16:53:54.801Z,72.72
2022-11-08T16:56:32.150Z,71.88
2022-11-08T16:58:59.511Z,72.85
2022-11-08T17:01:31.973Z,78.43
2022-11-08T17:03:59.552Z,68.28
2022-11-08T17:06:26.892Z,80.18
2022-11-08T17:08:54.752Z,98.45
2022-11-08T17:11:24.300Z,71.68
2022-11-08T17:13:55.420Z,79.60
2022-11-08T17:16:31.166Z,79.75
2022-11-08T17:19:02.670Z,74.90
2022-11-08T17:21:49.844Z,79.90
2022-11-08T17:24:22.212Z,75.15
2022-11-08T17:26:50.579Z,76.13
2022-11-08T17:29:18.078Z,97.63
2022-11-08T17:31:49.643Z,94.35
2022-11-08T17:34:17.343Z,84.53
2022-11-08T17:36:44.737Z,108.40
2022-11-08T17:39:14.295Z,105.18
2022-11-08T17:41:41.608Z,113.00
2022-11-08T17:44:10.789Z,121.47
2022-11-08T17:46:52.678Z,115.03
2022-11-08T17:49:32.509Z,108.85
2022-11-08T17:52:11.329Z,115.18
2022-11-08T17:54:42.563Z,117.17
2022-11-08T17:57:13.603Z,122.40
2022-11-08T17:59:41.258Z,118.53
2022-11-08T18:02:18.185Z,118.20
2022-11-08T18:04:47.919Z,130.17
2022-11-08T18:07:16.734Z,109.82
2022-11-08T18:09:50.726Z,118.43
2022-11-08T18:12:18.697Z,120.70
2022-11-08T18:14:47.653Z,115.70
2022-11-08T18:17:21.486Z,116.47
2022-11-08T18:19:50.646Z,109.50
2022-11-08T18:22:19.897Z,106.63
2022-11-08T18:24:49.934Z,118.88
2022-11-08T18:27:18.151Z,102.85
2022-11-08T18:29:47.111Z,103.45
2022-11-08T18:32:15.723Z,103.10
2022-11-08T18:34:43.178Z,99.80
2022-11-08T18:37:13.405Z,112.90
2022-11-08T18:39:41.094Z,104.72
2022-11-08T18:42:09.483Z,115.63
2022-11-08T18:44:36.905Z,121.07
2022-11-08T18:47:04.236Z,128.70
2022-11-08T18:49:31.428Z,123.47
2022-11-08T18:51:58.892Z,120.00
2022-11-08T18:54:26.286Z,125.38
2022-11-08T18:56:53.660Z,125.43
2022-11-08T18:59:21.016Z,118.90
2022-11-08T19:01:50.190Z,145.02
2022-11-08T19:04:21.257Z,134.20
2022-11-08T19:06:54.892Z,125.70
2022-11-08T19:09:28.181Z,125.10
2022-11-08T19:12:05.700Z,115.68
2022-11-08T19:14:36.524Z,114.90
2022-11-08T19:17:04.988Z,126.45
2022-11-08T19:19:40.155Z,126.63
2022-11-08T19:22:11.156Z,140.48
2022-11-08T19:24:40.736Z,144.07
2022-11-08T19:27:13.459Z,137.23
2022-11-08T19:32:29.372Z,160.33
2022-11-08T19:35:03.778Z,146.65
2022-11-08T19:37:31.655Z,144.88
2022-11-08T19:40:02.670Z,143.97
2022-11-08T19:42:30.229Z,131.13
2022-11-08T19:45:00.798Z,145.57
2022-11-08T19:47:32.466Z,142.30
2022-11-08T19:49:59.773Z,138.10
2022-11-08T19:52:26.990Z,152.33
2022-11-08T19:54:58.199Z,143.63
2022-11-08T19:57:27.343Z,154.03
2022-11-08T19:59:54.551Z,143.40
2022-11-08T20:02:21.995Z,139.67
2022-11-08T20:04:51.362Z,148.70
2022-11-08T20:07:18.837Z,137.97
2022-11-08T20:09:50.787Z,130.90
2022-11-08T20:12:18.132Z,142.33
2022-11-08T20:14:49.162Z,139.32
2022-11-08T20:17:17.362Z,140.30
2022-11-08T20:19:46.507Z,141.70
2022-11-08T20:22:14.297Z,132.83
2022-11-08T20:24:41.575Z,134.03
2022-11-08T20:27:09.626Z,135.73
2022-11-08T20:29:36.905Z,123.40
2022-11-08T20:32:04.244Z,145.00
2022-11-08T20:34:31.560Z,133.53
2022-11-08T20:36:59.133Z,137.53
2022-11-08T20:39:26.983Z,146.50
2022-11-08T20:41:54.465Z,138.90
2022-11-08T20:44:24.185Z,142.87
2022-11-08T20:50:51.447Z,159.67
2022-11-08T20:53:18.669Z,164.50
2022-11-08T20:55:45.836Z,161.07
2022-11-08T20:58:13.015Z,160.40
2022-11-08T21:01:05.151Z,176.03
2022-11-08T21:03:33.211Z,186.83
2022-11-08T21:06:02.854Z,182.40
2022-11-08T21:11:20.485Z,183.83
2022-11-08T21:13:48.519Z,183.67
2022-11-08T21:19:02.926Z,181.30
2022-11-08T21:21:33.132Z,186.48
2022-11-08T21:24:03.799Z,181.83
2022-11-08T21:26:42.181Z,177.93
2022-11-08T21:29:09.460Z,182.73
2022-11-08T21:31:37.945Z,174.00
2022-11-08T21:34:05.618Z,162.13
2022-11-08T21:36:40.543Z,164.85
2022-11-08T21:39:11.772Z,174.18
2022-11-08T21:41:40.984Z,175.27
2022-11-08T21:44:08.317Z,173.17
2022-11-08T21:46:35.628Z,191.25
2022-11-08T21:49:03.511Z,169.48
2022-11-08T21:51:30.991Z,191.17
2022-11-08T21:53:59.384Z,185.68
2022-11-08T22:00:18.395Z,171.93
2022-11-08T22:02:48.180Z,179.50
2022-11-08T22:05:16.035Z,164.45
2022-11-08T22:07:49.056Z,170.90
2022-11-08T22:10:25.709Z,176.52
2022-11-08T22:12:54.380Z,172.97
2022-11-08T22:15:21.775Z,186.27
2022-11-08T22:18:14.450Z,169.90
2022-11-08T22:20:37.178Z,166.45
2022-11-08T22:23:08.950Z,167.05
2022-11-08T22:25:39.328Z,161.63
2022-11-08T22:28:07.166Z,157.57
2022-11-08T22:30:35.000Z,152.40
2022-11-08T22:33:05.872Z,150.88
2022-11-08T22:35:33.071Z,141.00
2022-11-08T22:38:00.374Z,145.02
2022-11-08T22:40:28.976Z,147.05
2022-11-08T22:42:57.401Z,145.32
2022-11-08T22:45:24.631Z,144.23
2022-11-08T22:47:52.423Z,136.65
2022-11-08T22:50:25.848Z,135.15
2022-11-08T22:52:56.520Z,137.68
2022-11-08T22:55:23.739Z,139.03
2022-11-08T22:57:52.017Z,145.75
2022-11-08T23:00:25.159Z,143.73
2022-11-08T23:03:00.122Z,144.87
2022-11-08T23:05:27.384Z,136.05
2022-11-08T23:07:55.308Z,152.50
2022-11-08T23:10:22.979Z,138.48
2022-11-08T23:13:08.832Z,154.32
2022-11-08T23:15:55.160Z,137.63
2022-11-08T23:18:23.702Z,135.50
2022-11-08T23:21:13.004Z,140.60
2022-11-08T23:23:59.374Z,145.18
2022-11-08T23:26:45.521Z,142.70
2022-11-08T23:29:31.307Z,143.63
2022-11-08T23:31:58.598Z,142.30
2022-11-08T23:34:27.066Z,141.88
2022-11-08T23:36:54.307Z,135.13
2022-11-08T23:39:21.825Z,139.80
2022-11-08T23:42:07.696Z,123.43
2022-11-08T23:45:28.677Z,126.67
2022-11-08T23:47:56.138Z,138.40
2022-11-08T23:50:26.407Z,147.95
2022-11-08T23:52:54.317Z,143.57
2022-11-08T23:55:24.356Z,142.00
2022-11-08T23:57:51.583Z,134.17
